sensor_id;sensor_type;location;lat;lon;timestamp;P1;durP1;ratioP1;P2;durP2;ratioP2
37383;SDS011;23258;49.718;11.082;2023-02-11T00:02:26;32.17;;;21.57;;
37383;SDS011;23258;49.718;11.082;2023-02-11T00:04:55;33.33;;;21.37;;
37383;SDS011;23258;49.718;11.082;2023-02-11T00:07:30;32.97;;;21.13;;
37383;SDS011;23258;49.718;11.082;2023-02-11T00:10:00;28.87;;;20.83;;
37383;SDS011;23258;49.718;11.082;2023-02-11T00:12:32;34.40;;;22.57;;
37383;SDS011;23258;49.718;11.082;2023-02-11T00:15:01;34.57;;;22.57;;
37383;SDS011;23258;49.718;11.082;2023-02-11T00:17:31;25.67;;;21.10;;
37383;SDS011;23258;49.718;11.082;2023-02-11T00:20:01;31.57;;;21.93;;
37383;SDS011;23258;49.718;11.082;2023-02-11T00:22:36;30.37;;;21.77;;
37383;SDS011;23258;49.718;11.082;2023-02-11T00:25:06;31.80;;;21.50;;
37383;SDS011;23258;49.718;11.082;2023-02-11T00:27:35;31.53;;;21.00;;
37383;SDS011;23258;49.718;11.082;2023-02-11T00:30:06;32.50;;;21.60;;
37383;SDS011;23258;49.718;11.082;2023-02-11T00:32:37;30.57;;;21.33;;
37383;SDS011;23258;49.718;11.082;2023-02-11T00:35:08;34.30;;;21.60;;
37383;SDS011;23258;49.718;11.082;2023-02-11T00:37:40;32.13;;;20.70;;
37383;SDS011;23258;49.718;11.082;2023-02-11T00:40:10;34.77;;;20.67;;
37383;SDS011;23258;49.718;11.082;2023-02-11T00:42:41;31.40;;;22.10;;
37383;SDS011;23258;49.718;11.082;2023-02-11T00:45:11;38.30;;;23.20;;
37383;SDS011;23258;49.718;11.082;2023-02-11T00:47:40;30.77;;;21.40;;
37383;SDS011;23258;49.718;11.082;2023-02-11T00:50:10;36.17;;;21.87;;
37383;SDS011;23258;49.718;11.082;2023-02-11T00:52:42;35.33;;;22.30;;
37383;SDS011;23258;49.718;11.082;2023-02-11T00:55:12;31.37;;;21.17;;
37383;SDS011;23258;49.718;11.082;2023-02-11T00:57:41;32.40;;;21.90;;
37383;SDS011;23258;49.718;11.082;2023-02-11T01:00:11;30.93;;;21.20;;
37383;SDS011;23258;49.718;11.082;2023-02-11T01:02:43;27.83;;;20.03;;
37383;SDS011;23258;49.718;11.082;2023-02-11T01:05:13;28.73;;;20.83;;
37383;SDS011;23258;49.718;11.082;2023-02-11T01:07:45;30.93;;;22.23;;
37383;SDS011;23258;49.718;11.082;2023-02-11T01:10:14;34.67;;;21.20;;
37383;SDS011;23258;49.718;11.082;2023-02-11T01:12:44;34.33;;;22.33;;
37383;SDS011;23258;49.718;11.082;2023-02-11T01:15:15;29.70;;;19.23;;
37383;SDS011;23258;49.718;11.082;2023-02-11T01:17:44;27.70;;;20.43;;
37383;SDS011;23258;49.718;11.082;2023-02-11T01:20:15;30.23;;;20.73;;
37383;SDS011;23258;49.718;11.082;2023-02-11T01:22:47;26.87;;;19.70;;
37383;SDS011;23258;49.718;11.082;2023-02-11T01:25:17;28.80;;;19.77;;
37383;SDS011;23258;49.718;11.082;2023-02-11T01:27:47;31.13;;;19.97;;
37383;SDS011;23258;49.718;11.082;2023-02-11T01:30:16;26.67;;;18.53;;
37383;SDS011;23258;49.718;11.082;2023-02-11T01:32:46;31.50;;;19.40;;
37383;SDS011;23258;49.718;11.082;2023-02-11T01:35:15;28.27;;;19.50;;
37383;SDS011;23258;49.718;11.082;2023-02-11T01:37:48;25.47;;;18.60;;
37383;SDS011;23258;49.718;11.082;2023-02-11T01:40:17;30.57;;;20.03;;
37383;SDS011;23258;49.718;11.082;2023-02-11T01:42:47;26.17;;;19.27;;
37383;SDS011;23258;49.718;11.082;2023-02-11T01:48:01;28.73;;;20.20;;
37383;SDS011;23258;49.718;11.082;2023-02-11T01:50:31;24.90;;;17.90;;
37383;SDS011;23258;49.718;11.082;2023-02-11T01:53:03;25.63;;;18.67;;
37383;SDS011;23258;49.718;11.082;2023-02-11T01:55:45;27.70;;;18.10;;
37383;SDS011;23258;49.718;11.082;2023-02-11T01:58:27;25.57;;;20.17;;
37383;SDS011;23258;49.718;11.082;2023-02-11T02:00:58;28.57;;;18.77;;
37383;SDS011;23258;49.718;11.082;2023-02-11T02:03:29;25.30;;;19.63;;
37383;SDS011;23258;49.718;11.082;2023-02-11T02:06:00;29.47;;;19.67;;
37383;SDS011;23258;49.718;11.082;2023-02-11T02:08:35;29.50;;;19.93;;
37383;SDS011;23258;49.718;11.082;2023-02-11T02:11:06;27.53;;;19.23;;
37383;SDS011;23258;49.718;11.082;2023-02-11T02:13:36;26.80;;;18.27;;
37383;SDS011;23258;49.718;11.082;2023-02-11T02:16:06;23.73;;;17.70;;
37383;SDS011;23258;49.718;11.082;2023-02-11T02:18:38;24.07;;;17.73;;
37383;SDS011;23258;49.718;11.082;2023-02-11T02:24:06;27.67;;;18.07;;
37383;SDS011;23258;49.718;11.082;2023-02-11T02:26:52;26.80;;;18.83;;
37383;SDS011;23258;49.718;11.082;2023-02-11T02:29:35;30.63;;;18.77;;
37383;SDS011;23258;49.718;11.082;2023-02-11T02:34:57;26.03;;;17.53;;
37383;SDS011;23258;49.718;11.082;2023-02-11T02:37:30;26.77;;;17.23;;
37383;SDS011;23258;49.718;11.082;2023-02-11T02:40:04;23.83;;;17.63;;
37383;SDS011;23258;49.718;11.082;2023-02-11T02:42:35;29.40;;;17.67;;
37383;SDS011;23258;49.718;11.082;2023-02-11T02:45:06;27.80;;;19.43;;
37383;SDS011;23258;49.718;11.082;2023-02-11T02:47:35;27.63;;;19.40;;
37383;SDS011;23258;49.718;11.082;2023-02-11T02:50:08;23.87;;;16.80;;
37383;SDS011;23258;49.718;11.082;2023-02-11T02:52:40;27.77;;;18.53;;
37383;SDS011;23258;49.718;11.082;2023-02-11T02:58:03;25.57;;;17.47;;
37383;SDS011;23258;49.718;11.082;2023-02-11T03:00:35;24.47;;;17.33;;
37383;SDS011;23258;49.718;11.082;2023-02-11T03:03:11;26.47;;;18.00;;
37383;SDS011;23258;49.718;11.082;2023-02-11T03:05:55;26.17;;;17.80;;
37383;SDS011;23258;49.718;11.082;2023-02-11T03:08:27;28.00;;;18.30;;
37383;SDS011;23258;49.718;11.082;2023-02-11T03:10:59;25.60;;;17.57;;
37383;SDS011;23258;49.718;11.082;2023-02-11T03:13:30;23.73;;;17.37;;
37383;SDS011;23258;49.718;11.082;2023-02-11T03:16:02;30.97;;;18.27;;
37383;SDS011;23258;49.718;11.082;2023-02-11T03:18:34;27.90;;;17.80;;
37383;SDS011;23258;49.718;11.082;2023-02-11T03:21:07;27.07;;;17.43;;
37383;SDS011;23258;49.718;11.082;2023-02-11T03:23:38;23.03;;;16.37;;
37383;SDS011;23258;49.718;11.082;2023-02-11T03:26:10;32.53;;;17.23;;
37383;SDS011;23258;49.718;11.082;2023-02-11T03:28:43;23.83;;;16.93;;
37383;SDS011;23258;49.718;11.082;2023-02-11T03:31:16;23.33;;;15.73;;
37383;SDS011;23258;49.718;11.082;2023-02-11T03:33:48;21.13;;;16.80;;
37383;SDS011;23258;49.718;11.082;2023-02-11T03:36:23;24.80;;;17.73;;
37383;SDS011;23258;49.718;11.082;2023-02-11T03:38:55;30.63;;;18.37;;
37383;SDS011;23258;49.718;11.082;2023-02-11T03:41:26;25.83;;;16.73;;
37383;SDS011;23258;49.718;11.082;2023-02-11T03:43:57;25.13;;;16.17;;
37383;SDS011;23258;49.718;11.082;2023-02-11T03:46:29;27.20;;;16.70;;
37383;SDS011;23258;49.718;11.082;2023-02-11T03:49:01;27.00;;;18.57;;
37383;SDS011;23258;49.718;11.082;2023-02-11T03:51:34;25.20;;;16.03;;
37383;SDS011;23258;49.718;11.082;2023-02-11T03:54:05;24.37;;;16.07;;
37383;SDS011;23258;49.718;11.082;2023-02-11T03:56:37;21.07;;;16.23;;
37383;SDS011;23258;49.718;11.082;2023-02-11T03:59:08;24.97;;;17.13;;
37383;SDS011;23258;49.718;11.082;2023-02-11T04:01:38;26.90;;;17.63;;
37383;SDS011;23258;49.718;11.082;2023-02-11T04:04:08;24.57;;;16.77;;
37383;SDS011;23258;49.718;11.082;2023-02-11T04:06:40;28.53;;;16.33;;
37383;SDS011;23258;49.718;11.082;2023-02-11T04:09:10;25.10;;;15.77;;
37383;SDS011;23258;49.718;11.082;2023-02-11T04:11:40;25.57;;;16.63;;
37383;SDS011;23258;49.718;11.082;2023-02-11T04:14:10;22.23;;;16.33;;
37383;SDS011;23258;49.718;11.082;2023-02-11T04:16:39;22.43;;;15.37;;
37383;SDS011;23258;49.718;11.082;2023-02-11T04:19:09;23.90;;;16.40;;
37383;SDS011;23258;49.718;11.082;2023-02-11T04:21:41;26.10;;;17.17;;
37383;SDS011;23258;49.718;11.082;2023-02-11T04:24:11;24.33;;;16.73;;
37383;SDS011;23258;49.718;11.082;2023-02-11T04:26:41;28.53;;;17.47;;
37383;SDS011;23258;49.718;11.082;2023-02-11T04:29:10;31.27;;;18.33;;
37383;SDS011;23258;49.718;11.082;2023-02-11T04:31:40;19.67;;;15.03;;
37383;SDS011;23258;49.718;11.082;2023-02-11T04:34:09;20.23;;;15.17;;
37383;SDS011;23258;49.718;11.082;2023-02-11T04:36:42;26.13;;;17.20;;
37383;SDS011;23258;49.718;11.082;2023-02-11T04:39:11;18.53;;;14.53;;
37383;SDS011;23258;49.718;11.082;2023-02-11T04:41:41;19.97;;;15.07;;
37383;SDS011;23258;49.718;11.082;2023-02-11T04:44:11;22.67;;;15.40;;
37383;SDS011;23258;49.718;11.082;2023-02-11T04:46:40;26.03;;;16.13;;
37383;SDS011;23258;49.718;11.082;2023-02-11T04:49:10;20.43;;;15.33;;
37383;SDS011;23258;49.718;11.082;2023-02-11T04:51:43;20.70;;;15.97;;
37383;SDS011;23258;49.718;11.082;2023-02-11T04:54:15;25.27;;;15.77;;
37383;SDS011;23258;49.718;11.082;2023-02-11T04:56:45;24.47;;;16.00;;
37383;SDS011;23258;49.718;11.082;2023-02-11T04:59:15;22.17;;;15.93;;
37383;SDS011;23258;49.718;11.082;2023-02-11T05:01:45;24.57;;;15.67;;
37383;SDS011;23258;49.718;11.082;2023-02-11T05:04:14;18.93;;;15.10;;
37383;SDS011;23258;49.718;11.082;2023-02-11T05:06:47;23.87;;;15.93;;
37383;SDS011;23258;49.718;11.082;2023-02-11T05:09:16;25.70;;;17.27;;
37383;SDS011;23258;49.718;11.082;2023-02-11T05:11:46;24.60;;;16.40;;
37383;SDS011;23258;49.718;11.082;2023-02-11T05:14:15;21.77;;;14.93;;
37383;SDS011;23258;49.718;11.082;2023-02-11T05:16:45;23.03;;;15.63;;
37383;SDS011;23258;49.718;11.082;2023-02-11T05:19:15;21.73;;;16.20;;
37383;SDS011;23258;49.718;11.082;2023-02-11T05:21:47;22.97;;;15.80;;
37383;SDS011;23258;49.718;11.082;2023-02-11T05:24:28;21.53;;;14.83;;
37383;SDS011;23258;49.718;11.082;2023-02-11T05:26:58;19.77;;;13.60;;
37383;SDS011;23258;49.718;11.082;2023-02-11T05:29:28;21.50;;;15.63;;
37383;SDS011;23258;49.718;11.082;2023-02-11T05:31:57;23.03;;;15.87;;
37383;SDS011;23258;49.718;11.082;2023-02-11T05:34:27;23.37;;;15.23;;
37383;SDS011;23258;49.718;11.082;2023-02-11T05:36:59;25.67;;;14.47;;
37383;SDS011;23258;49.718;11.082;2023-02-11T05:39:29;25.40;;;15.93;;
37383;SDS011;23258;49.718;11.082;2023-02-11T05:41:58;23.63;;;16.27;;
37383;SDS011;23258;49.718;11.082;2023-02-11T05:44:28;17.93;;;13.97;;
37383;SDS011;23258;49.718;11.082;2023-02-11T05:46:57;18.90;;;14.43;;
37383;SDS011;23258;49.718;11.082;2023-02-11T05:49:27;23.73;;;15.47;;
37383;SDS011;23258;49.718;11.082;2023-02-11T05:51:59;23.37;;;16.30;;
37383;SDS011;23258;49.718;11.082;2023-02-11T05:54:28;18.83;;;14.60;;
37383;SDS011;23258;49.718;11.082;2023-02-11T05:56:58;22.17;;;14.57;;
37383;SDS011;23258;49.718;11.082;2023-02-11T05:59:27;20.37;;;13.50;;
37383;SDS011;23258;49.718;11.082;2023-02-11T06:01:57;23.00;;;14.80;;
37383;SDS011;23258;49.718;11.082;2023-02-11T06:04:26;19.67;;;13.63;;
37383;SDS011;23258;49.718;11.082;2023-02-11T06:06:56;22.93;;;14.50;;
37383;SDS011;23258;49.718;11.082;2023-02-11T06:09:28;18.20;;;13.57;;
37383;SDS011;23258;49.718;11.082;2023-02-11T06:11:57;19.03;;;13.83;;
37383;SDS011;23258;49.718;11.082;2023-02-11T06:14:27;19.80;;;14.73;;
37383;SDS011;23258;49.718;11.082;2023-02-11T06:16:56;17.37;;;14.20;;
37383;SDS011;23258;49.718;11.082;2023-02-11T06:19:26;22.30;;;14.60;;
37383;SDS011;23258;49.718;11.082;2023-02-11T06:21:59;18.30;;;13.33;;
37383;SDS011;23258;49.718;11.082;2023-02-11T06:24:31;21.93;;;14.10;;
37383;SDS011;23258;49.718;11.082;2023-02-11T06:27:22;21.57;;;13.87;;
37383;SDS011;23258;49.718;11.082;2023-02-11T06:29:52;22.40;;;13.67;;
37383;SDS011;23258;49.718;11.082;2023-02-11T06:32:21;22.37;;;15.10;;
37383;SDS011;23258;49.718;11.082;2023-02-11T06:35:11;20.17;;;13.50;;
37383;SDS011;23258;49.718;11.082;2023-02-11T06:37:41;18.70;;;13.77;;
37383;SDS011;23258;49.718;11.082;2023-02-11T06:40:14;25.47;;;14.57;;
37383;SDS011;23258;49.718;11.082;2023-02-11T06:42:44;20.07;;;13.87;;
37383;SDS011;23258;49.718;11.082;2023-02-11T06:45:14;20.37;;;14.23;;
37383;SDS011;23258;49.718;11.082;2023-02-11T06:47:43;18.07;;;13.67;;
37383;SDS011;23258;49.718;11.082;2023-02-11T06:50:13;21.27;;;14.30;;
37383;SDS011;23258;49.718;11.082;2023-02-11T06:52:42;19.27;;;12.63;;
37383;SDS011;23258;49.718;11.082;2023-02-11T06:55:14;21.97;;;13.97;;
37383;SDS011;23258;49.718;11.082;2023-02-11T06:57:44;22.63;;;13.23;;
37383;SDS011;23258;49.718;11.082;2023-02-11T07:00:14;28.70;;;17.63;;
37383;SDS011;23258;49.718;11.082;2023-02-11T07:02:43;20.77;;;14.90;;
37383;SDS011;23258;49.718;11.082;2023-02-11T07:05:13;20.00;;;15.23;;
37383;SDS011;23258;49.718;11.082;2023-02-11T07:07:42;19.57;;;14.23;;
37383;SDS011;23258;49.718;11.082;2023-02-11T07:12:47;19.40;;;13.60;;
37383;SDS011;23258;49.718;11.082;2023-02-11T07:15:16;24.23;;;14.23;;
37383;SDS011;23258;49.718;11.082;2023-02-11T07:17:46;19.50;;;14.27;;
37383;SDS011;23258;49.718;11.082;2023-02-11T07:20:15;18.87;;;13.37;;
37383;SDS011;23258;49.718;11.082;2023-02-11T07:22:45;19.80;;;13.40;;
37383;SDS011;23258;49.718;11.082;2023-02-11T07:25:15;22.33;;;13.60;;
37383;SDS011;23258;49.718;11.082;2023-02-11T07:27:47;22.00;;;13.60;;
37383;SDS011;23258;49.718;11.082;2023-02-11T07:30:17;21.10;;;14.40;;
37383;SDS011;23258;49.718;11.082;2023-02-11T07:32:46;18.50;;;13.53;;
37383;SDS011;23258;49.718;11.082;2023-02-11T07:35:16;22.30;;;12.60;;
37383;SDS011;23258;49.718;11.082;2023-02-11T07:37:46;19.43;;;13.77;;
37383;SDS011;23258;49.718;11.082;2023-02-11T07:40:15;17.90;;;12.43;;
37383;SDS011;23258;49.718;11.082;2023-02-11T07:42:47;19.77;;;13.00;;
37383;SDS011;23258;49.718;11.082;2023-02-11T07:45:17;17.97;;;12.53;;
37383;SDS011;23258;49.718;11.082;2023-02-11T07:47:47;16.47;;;12.20;;
37383;SDS011;23258;49.718;11.082;2023-02-11T07:50:16;15.83;;;11.73;;
37383;SDS011;23258;49.718;11.082;2023-02-11T07:52:46;19.27;;;13.77;;
37383;SDS011;23258;49.718;11.082;2023-02-11T07:55:15;20.17;;;12.80;;
37383;SDS011;23258;49.718;11.082;2023-02-11T07:57:47;19.23;;;13.27;;
37383;SDS011;23258;49.718;11.082;2023-02-11T08:00:17;17.07;;;12.47;;
37383;SDS011;23258;49.718;11.082;2023-02-11T08:02:47;21.10;;;14.17;;
37383;SDS011;23258;49.718;11.082;2023-02-11T08:05:16;19.57;;;14.80;;
37383;SDS011;23258;49.718;11.082;2023-02-11T08:07:46;26.17;;;17.53;;
37383;SDS011;23258;49.718;11.082;2023-02-11T08:10:19;21.70;;;16.83;;
37383;SDS011;23258;49.718;11.082;2023-02-11T08:12:51;30.40;;;17.60;;
37383;SDS011;23258;49.718;11.082;2023-02-11T08:15:21;23.53;;;17.03;;
37383;SDS011;23258;49.718;11.082;2023-02-11T08:17:50;18.70;;;15.33;;
37383;SDS011;23258;49.718;11.082;2023-02-11T08:20:20;24.97;;;16.10;;
37383;SDS011;23258;49.718;11.082;2023-02-11T08:22:49;17.90;;;14.67;;
37383;SDS011;23258;49.718;11.082;2023-02-11T08:25:19;19.37;;;13.23;;
37383;SDS011;23258;49.718;11.082;2023-02-11T08:27:51;19.93;;;13.60;;
37383;SDS011;23258;49.718;11.082;2023-02-11T08:30:20;21.30;;;13.93;;
37383;SDS011;23258;49.718;11.082;2023-02-11T08:32:52;20.30;;;14.23;;
37383;SDS011;23258;49.718;11.082;2023-02-11T08:35:22;19.30;;;14.80;;
37383;SDS011;23258;49.718;11.082;2023-02-11T08:37:52;22.20;;;15.17;;
37383;SDS011;23258;49.718;11.082;2023-02-11T08:40:21;19.43;;;14.03;;
37383;SDS011;23258;49.718;11.082;2023-02-11T08:42:54;21.17;;;14.53;;
37383;SDS011;23258;49.718;11.082;2023-02-11T08:45:23;19.80;;;14.10;;
37383;SDS011;23258;49.718;11.082;2023-02-11T08:47:53;23.23;;;14.73;;
37383;SDS011;23258;49.718;11.082;2023-02-11T08:50:22;19.13;;;13.47;;
37383;SDS011;23258;49.718;11.082;2023-02-11T08:52:53;25.73;;;13.57;;
37383;SDS011;23258;49.718;11.082;2023-02-11T08:55:23;21.30;;;13.90;;
37383;SDS011;23258;49.718;11.082;2023-02-11T08:57:55;20.77;;;13.67;;
37383;SDS011;23258;49.718;11.082;2023-02-11T09:00:25;16.13;;;12.43;;
37383;SDS011;23258;49.718;11.082;2023-02-11T09:02:54;19.43;;;13.10;;
37383;SDS011;23258;49.718;11.082;2023-02-11T09:05:24;17.93;;;11.90;;
37383;SDS011;23258;49.718;11.082;2023-02-11T09:07:54;17.87;;;13.13;;
37383;SDS011;23258;49.718;11.082;2023-02-11T09:10:23;16.63;;;12.53;;
37383;SDS011;23258;49.718;11.082;2023-02-11T09:12:55;14.90;;;12.10;;
37383;SDS011;23258;49.718;11.082;2023-02-11T09:15:25;16.03;;;12.53;;
37383;SDS011;23258;49.718;11.082;2023-02-11T09:17:54;17.83;;;12.13;;
37383;SDS011;23258;49.718;11.082;2023-02-11T09:20:24;19.60;;;13.87;;
37383;SDS011;23258;49.718;11.082;2023-02-11T09:22:56;15.80;;;12.53;;
37383;SDS011;23258;49.718;11.082;2023-02-11T09:25:25;15.70;;;11.53;;
37383;SDS011;23258;49.718;11.082;2023-02-11T09:27:57;18.43;;;11.70;;
37383;SDS011;23258;49.718;11.082;2023-02-11T09:30:27;16.17;;;11.63;;
37383;SDS011;23258;49.718;11.082;2023-02-11T09:32:56;18.90;;;11.80;;
37383;SDS011;23258;49.718;11.082;2023-02-11T09:35:26;17.37;;;12.00;;
37383;SDS011;23258;49.718;11.082;2023-02-11T09:37:56;16.40;;;11.17;;
37383;SDS011;23258;49.718;11.082;2023-02-11T09:40:26;17.67;;;11.20;;
37383;SDS011;23258;49.718;11.082;2023-02-11T09:42:59;18.40;;;12.40;;
37383;SDS011;23258;49.718;11.082;2023-02-11T09:45:32;17.70;;;12.33;;
37383;SDS011;23258;49.718;11.082;2023-02-11T09:48:02;15.30;;;11.70;;
37383;SDS011;23258;49.718;11.082;2023-02-11T09:50:34;16.85;;;12.15;;
37383;SDS011;23258;49.718;11.082;2023-02-11T09:53:05;16.65;;;12.50;;
37383;SDS011;23258;49.718;11.082;2023-02-11T09:55:39;16.45;;;11.27;;
37383;SDS011;23258;49.718;11.082;2023-02-11T09:58:13;14.80;;;11.57;;
37383;SDS011;23258;49.718;11.082;2023-02-11T10:00:45;17.93;;;12.47;;
37383;SDS011;23258;49.718;11.082;2023-02-11T10:03:36;14.47;;;11.90;;
37383;SDS011;23258;49.718;11.082;2023-02-11T10:06:13;14.30;;;11.50;;
37383;SDS011;23258;49.718;11.082;2023-02-11T10:08:50;15.20;;;11.00;;
37383;SDS011;23258;49.718;11.082;2023-02-11T10:11:23;16.43;;;10.80;;
37383;SDS011;23258;49.718;11.082;2023-02-11T10:14:04;14.52;;;11.57;;
37383;SDS011;23258;49.718;11.082;2023-02-11T10:16:41;15.05;;;11.00;;
37383;SDS011;23258;49.718;11.082;2023-02-11T10:19:19;15.73;;;11.30;;
37383;SDS011;23258;49.718;11.082;2023-02-11T10:21:56;15.45;;;11.25;;
37383;SDS011;23258;49.718;11.082;2023-02-11T10:24:27;14.20;;;10.57;;
37383;SDS011;23258;49.718;11.082;2023-02-11T10:26:57;16.30;;;11.98;;
37383;SDS011;23258;49.718;11.082;2023-02-11T10:29:34;18.20;;;12.43;;
37383;SDS011;23258;49.718;11.082;2023-02-11T10:32:05;16.05;;;11.48;;
37383;SDS011;23258;49.718;11.082;2023-02-11T10:34:37;14.35;;;11.02;;
37383;SDS011;23258;49.718;11.082;2023-02-11T10:37:10;18.75;;;12.77;;
37383;SDS011;23258;49.718;11.082;2023-02-11T10:39:41;14.30;;;11.23;;
37383;SDS011;23258;49.718;11.082;2023-02-11T10:42:11;19.42;;;11.55;;
37383;SDS011;23258;49.718;11.082;2023-02-11T10:44:47;15.30;;;11.27;;
37383;SDS011;23258;49.718;11.082;2023-02-11T10:47:22;17.10;;;10.80;;
37383;SDS011;23258;49.718;11.082;2023-02-11T10:49:53;15.75;;;11.15;;
37383;SDS011;23258;49.718;11.082;2023-02-11T10:52:29;15.77;;;11.73;;
37383;SDS011;23258;49.718;11.082;2023-02-11T10:55:00;18.38;;;11.65;;
37383;SDS011;23258;49.718;11.082;2023-02-11T10:57:32;11.68;;;10.43;;
37383;SDS011;23258;49.718;11.082;2023-02-11T11:00:07;17.88;;;11.32;;
37383;SDS011;23258;49.718;11.082;2023-02-11T11:02:52;15.25;;;10.90;;
37383;SDS011;23258;49.718;11.082;2023-02-11T11:05:25;13.90;;;10.27;;
37383;SDS011;23258;49.718;11.082;2023-02-11T11:07:57;14.05;;;10.75;;
37383;SDS011;23258;49.718;11.082;2023-02-11T11:10:29;15.90;;;11.05;;
37383;SDS011;23258;49.718;11.082;2023-02-11T11:12:58;14.43;;;10.65;;
37383;SDS011;23258;49.718;11.082;2023-02-11T11:15:31;15.25;;;10.52;;
37383;SDS011;23258;49.718;11.082;2023-02-11T11:18:12;12.77;;;11.00;;
37383;SDS011;23258;49.718;11.082;2023-02-11T11:20:53;19.38;;;11.57;;
37383;SDS011;23258;49.718;11.082;2023-02-11T11:23:24;11.98;;;10.15;;
37383;SDS011;23258;49.718;11.082;2023-02-11T11:25:58;16.67;;;11.13;;
37383;SDS011;23258;49.718;11.082;2023-02-11T11:28:30;18.43;;;11.50;;
37383;SDS011;23258;49.718;11.082;2023-02-11T11:31:05;14.27;;;12.02;;
37383;SDS011;23258;49.718;11.082;2023-02-11T11:33:41;15.30;;;11.40;;
37383;SDS011;23258;49.718;11.082;2023-02-11T11:36:12;15.80;;;11.40;;
37383;SDS011;23258;49.718;11.082;2023-02-11T11:38:43;15.02;;;10.32;;
37383;SDS011;23258;49.718;11.082;2023-02-11T11:41:14;16.90;;;11.15;;
37383;SDS011;23258;49.718;11.082;2023-02-11T11:43:54;14.93;;;10.52;;
37383;SDS011;23258;49.718;11.082;2023-02-11T11:46:28;16.05;;;10.05;;
37383;SDS011;23258;49.718;11.082;2023-02-11T11:49:08;15.65;;;11.20;;
37383;SDS011;23258;49.718;11.082;2023-02-11T11:51:41;13.85;;;9.70;;
37383;SDS011;23258;49.718;11.082;2023-02-11T11:54:14;15.95;;;11.50;;
37383;SDS011;23258;49.718;11.082;2023-02-11T11:56:46;13.93;;;10.23;;
37383;SDS011;23258;49.718;11.082;2023-02-11T11:59:18;16.05;;;11.05;;
37383;SDS011;23258;49.718;11.082;2023-02-11T12:01:58;16.55;;;10.43;;
37383;SDS011;23258;49.718;11.082;2023-02-11T12:04:42;16.90;;;11.10;;
37383;SDS011;23258;49.718;11.082;2023-02-11T12:07:22;16.50;;;11.48;;
37383;SDS011;23258;49.718;11.082;2023-02-11T12:09:59;16.05;;;11.50;;
37383;SDS011;23258;49.718;11.082;2023-02-11T12:12:34;15.15;;;10.68;;
37383;SDS011;23258;49.718;11.082;2023-02-11T12:15:13;15.93;;;10.23;;
37383;SDS011;23258;49.718;11.082;2023-02-11T12:17:55;13.80;;;10.30;;
37383;SDS011;23258;49.718;11.082;2023-02-11T12:20:28;17.30;;;10.77;;
37383;SDS011;23258;49.718;11.082;2023-02-11T12:23:04;16.58;;;11.13;;
37383;SDS011;23258;49.718;11.082;2023-02-11T12:25:37;16.50;;;12.48;;
37383;SDS011;23258;49.718;11.082;2023-02-11T12:28:14;11.33;;;10.17;;
37383;SDS011;23258;49.718;11.082;2023-02-11T12:30:51;15.27;;;11.90;;
37383;SDS011;23258;49.718;11.082;2023-02-11T12:33:29;18.58;;;10.80;;
37383;SDS011;23258;49.718;11.082;2023-02-11T12:36:05;16.38;;;12.43;;
37383;SDS011;23258;49.718;11.082;2023-02-11T12:38:46;13.77;;;10.70;;
37383;SDS011;23258;49.718;11.082;2023-02-11T12:41:26;17.63;;;10.70;;
37383;SDS011;23258;49.718;11.082;2023-02-11T12:44:16;13.60;;;9.93;;
37383;SDS011;23258;49.718;11.082;2023-02-11T12:46:48;15.23;;;11.02;;
37383;SDS011;23258;49.718;11.082;2023-02-11T12:49:27;17.02;;;11.48;;
37383;SDS011;23258;49.718;11.082;2023-02-11T12:52:03;13.63;;;10.18;;
37383;SDS011;23258;49.718;11.082;2023-02-11T12:54:35;13.57;;;10.80;;
37383;SDS011;23258;49.718;11.082;2023-02-11T12:57:10;14.55;;;10.70;;
37383;SDS011;23258;49.718;11.082;2023-02-11T12:59:43;15.40;;;9.52;;
37383;SDS011;23258;49.718;11.082;2023-02-11T13:02:18;19.55;;;11.95;;
37383;SDS011;23258;49.718;11.082;2023-02-11T13:04:53;14.95;;;10.30;;
37383;SDS011;23258;49.718;11.082;2023-02-11T13:07:26;14.93;;;10.30;;
37383;SDS011;23258;49.718;11.082;2023-02-11T13:09:57;13.88;;;11.10;;
37383;SDS011;23258;49.718;11.082;2023-02-11T13:12:28;15.77;;;10.98;;
37383;SDS011;23258;49.718;11.082;2023-02-11T13:15:12;16.73;;;10.57;;
37383;SDS011;23258;49.718;11.082;2023-02-11T13:17:43;16.15;;;10.75;;
37383;SDS011;23258;49.718;11.082;2023-02-11T13:20:20;15.82;;;10.07;;
37383;SDS011;23258;49.718;11.082;2023-02-11T13:22:55;16.08;;;10.32;;
37383;SDS011;23258;49.718;11.082;2023-02-11T13:25:28;13.00;;;9.82;;
37383;SDS011;23258;49.718;11.082;2023-02-11T13:28:00;14.13;;;11.00;;
37383;SDS011;23258;49.718;11.082;2023-02-11T13:30:32;14.02;;;10.35;;
37383;SDS011;23258;49.718;11.082;2023-02-11T13:36:18;12.00;;;9.70;;
37383;SDS011;23258;49.718;11.082;2023-02-11T13:38:56;18.55;;;10.68;;
37383;SDS011;23258;49.718;11.082;2023-02-11T13:41:30;14.70;;;10.63;;
37383;SDS011;23258;49.718;11.082;2023-02-11T13:44:02;13.85;;;10.38;;
37383;SDS011;23258;49.718;11.082;2023-02-11T13:49:20;15.25;;;10.20;;
37383;SDS011;23258;49.718;11.082;2023-02-11T13:51:53;15.30;;;11.18;;
37383;SDS011;23258;49.718;11.082;2023-02-11T13:54:24;18.10;;;11.60;;
37383;SDS011;23258;49.718;11.082;2023-02-11T13:59:43;15.20;;;10.20;;
37383;SDS011;23258;49.718;11.082;2023-02-11T14:02:21;15.23;;;10.15;;
37383;SDS011;23258;49.718;11.082;2023-02-11T14:11:39;12.82;;;10.77;;
37383;SDS011;23258;49.718;11.082;2023-02-11T14:14:12;16.25;;;11.57;;
37383;SDS011;23258;49.718;11.082;2023-02-11T14:19:31;18.02;;;11.10;;
37383;SDS011;23258;49.718;11.082;2023-02-11T14:22:01;14.23;;;11.03;;
37383;SDS011;23258;49.718;11.082;2023-02-11T14:24:45;13.38;;;10.55;;
37383;SDS011;23258;49.718;11.082;2023-02-11T14:27:22;13.30;;;10.20;;
37383;SDS011;23258;49.718;11.082;2023-02-11T14:32:44;15.50;;;10.68;;
37383;SDS011;23258;49.718;11.082;2023-02-11T14:35:21;17.55;;;11.75;;
37383;SDS011;23258;49.718;11.082;2023-02-11T14:37:53;19.13;;;10.93;;
37383;SDS011;23258;49.718;11.082;2023-02-11T14:40:25;11.85;;;9.82;;
37383;SDS011;23258;49.718;11.082;2023-02-11T14:42:59;15.00;;;10.68;;
37383;SDS011;23258;49.718;11.082;2023-02-11T14:45:33;22.63;;;11.23;;
37383;SDS011;23258;49.718;11.082;2023-02-11T14:48:05;13.25;;;10.45;;
37383;SDS011;23258;49.718;11.082;2023-02-11T14:50:39;17.52;;;11.98;;
37383;SDS011;23258;49.718;11.082;2023-02-11T14:53:11;13.77;;;10.75;;
37383;SDS011;23258;49.718;11.082;2023-02-11T14:55:43;12.90;;;10.52;;
37383;SDS011;23258;49.718;11.082;2023-02-11T14:58:17;18.67;;;11.23;;
37383;SDS011;23258;49.718;11.082;2023-02-11T15:00:48;14.02;;;9.10;;
37383;SDS011;23258;49.718;11.082;2023-02-11T15:03:25;15.05;;;9.98;;
37383;SDS011;23258;49.718;11.082;2023-02-11T15:05:55;12.38;;;10.48;;
37383;SDS011;23258;49.718;11.082;2023-02-11T15:08:26;15.95;;;10.50;;
37383;SDS011;23258;49.718;11.082;2023-02-11T15:10:57;15.70;;;11.32;;
37383;SDS011;23258;49.718;11.082;2023-02-11T15:13:31;13.80;;;10.43;;